sensor_id;sensor_type;location;lat;lon;timestamp;pressure;altitude;pressure_sealevel;temperature;humidity
71567;BME280;59403;47.456;19.120;2023-07-13T00:00:26;100042.56;;;25.14;79.68
71567;BME280;59403;47.456;19.120;2023-07-13T00:02:53;100054.69;;;25.06;80.79
71567;BME280;59403;47.456;19.120;2023-07-13T00:05:21;100038.41;;;25.01;81.26
71567;BME280;59403;47.456;19.120;2023-07-13T00:07:48;100039.50;;;25.00;81.19
71567;BME280;59403;47.456;19.120;2023-07-13T00:10:16;100026.16;;;24.94;81.77
71567;BME280;59403;47.456;19.120;2023-07-13T00:12:44;100015.75;;;24.81;82.64
71567;BME280;59403;47.456;19.120;2023-07-13T00:15:15;100011.62;;;24.73;83.91
71567;BME280;59403;47.456;19.120;2023-07-13T00:17:46;100014.19;;;24.58;84.61
71567;BME280;59403;47.456;19.120;2023-07-13T00:20:13;100007.91;;;24.52;85.45
71567;BME280;59403;47.456;19.120;2023-07-13T00:22:40;99989.88;;;24.36;87.76
71567;BME280;59403;47.456;19.120;2023-07-13T00:25:09;99985.75;;;24.29;88.00
71567;BME280;59403;47.456;19.120;2023-07-13T00:27:37;99975.38;;;24.21;88.57
71567;BME280;59403;47.456;19.120;2023-07-13T00:30:05;99973.56;;;24.05;88.03
71567;BME280;59403;47.456;19.120;2023-07-13T00:32:35;99960.34;;;24.08;86.64
71567;BME280;59403;47.456;19.120;2023-07-13T00:35:03;99953.84;;;24.04;85.81
71567;BME280;59403;47.456;19.120;2023-07-13T00:37:30;99949.53;;;24.08;85.36
71567;BME280;59403;47.456;19.120;2023-07-13T00:39:57;99931.19;;;24.15;84.65
71567;BME280;59403;47.456;19.120;2023-07-13T00:42:24;99924.72;;;24.16;83.93
71567;BME280;59403;47.456;19.120;2023-07-13T00:45:02;99925.84;;;24.20;83.38
71567;BME280;59403;47.456;19.120;2023-07-13T00:47:29;99917.44;;;24.17;82.14
71567;BME280;59403;47.456;19.120;2023-07-13T00:49:57;99905.22;;;24.14;82.07
71567;BME280;59403;47.456;19.120;2023-07-13T00:52:25;99899.81;;;24.14;81.47
71567;BME280;59403;47.456;19.120;2023-07-13T00:54:53;99907.06;;;24.09;81.60
71567;BME280;59403;47.456;19.120;2023-07-13T00:57:21;99902.47;;;24.09;81.42
71567;BME280;59403;47.456;19.120;2023-07-13T00:59:51;99906.53;;;24.12;81.33
71567;BME280;59403;47.456;19.120;2023-07-13T01:05:13;99891.78;;;23.98;82.12
71567;BME280;59403;47.456;19.120;2023-07-13T01:08:19;99894.09;;;23.89;82.68
71567;BME280;59403;47.456;19.120;2023-07-13T01:11:05;99881.34;;;23.85;83.07
71567;BME280;59403;47.456;19.120;2023-07-13T01:13:51;99868.66;;;23.85;82.92
71567;BME280;59403;47.456;19.120;2023-07-13T01:16:27;99864.81;;;23.81;83.13
71567;BME280;59403;47.456;19.120;2023-07-13T01:19:00;99876.47;;;23.82;82.78
71567;BME280;59403;47.456;19.120;2023-07-13T01:21:32;99864.78;;;23.76;82.89
71567;BME280;59403;47.456;19.120;2023-07-13T01:24:08;99865.09;;;23.80;82.61
71567;BME280;59403;47.456;19.120;2023-07-13T01:26:35;99825.37;;;23.58;82.42
71567;BME280;59403;47.456;19.120;2023-07-13T01:29:07;99853.41;;;23.74;82.45
71567;BME280;59403;47.456;19.120;2023-07-13T01:31:34;99861.81;;;23.78;82.77
71567;BME280;59403;47.456;19.120;2023-07-13T01:34:10;99816.91;;;23.50;82.61
71567;BME280;59403;47.456;19.120;2023-07-13T01:36:39;99862.91;;;23.77;82.71
71567;BME280;59403;47.456;19.120;2023-07-13T01:39:12;99866.91;;;23.74;82.78
71567;BME280;59403;47.456;19.120;2023-07-13T01:41:44;99869.56;;;23.69;83.50
71567;BME280;59403;47.456;19.120;2023-07-13T01:44:16;99842.38;;;23.54;83.82
71567;BME280;59403;47.456;19.120;2023-07-13T01:46:45;99854.56;;;23.56;84.31
71567;BME280;59403;47.456;19.120;2023-07-13T01:49:20;99858.66;;;23.59;84.67
71567;BME280;59403;47.456;19.120;2023-07-13T01:55:01;99847.44;;;23.45;85.52
71567;BME280;59403;47.456;19.120;2023-07-13T01:58:04;99846.03;;;23.43;87.42
71567;BME280;59403;47.456;19.120;2023-07-13T02:00:42;99819.25;;;23.20;86.51
71567;BME280;59403;47.456;19.120;2023-07-13T02:03:17;99839.13;;;23.30;86.87
71567;BME280;59403;47.456;19.120;2023-07-13T02:05:52;99828.81;;;23.27;86.90
71567;BME280;59403;47.456;19.120;2023-07-13T02:08:22;99817.44;;;23.25;86.86
71567;BME280;59403;47.456;19.120;2023-07-13T02:11:02;99827.94;;;23.22;87.20
71567;BME280;59403;47.456;19.120;2023-07-13T02:13:43;99819.19;;;23.15;87.94
71567;BME280;59403;47.456;19.120;2023-07-13T02:16:22;99797.09;;;22.96;89.10
71567;BME280;59403;47.456;19.120;2023-07-13T02:18:54;99827.31;;;23.15;88.55
71567;BME280;59403;47.456;19.120;2023-07-13T02:21:23;99835.28;;;23.05;89.42
71567;BME280;59403;47.456;19.120;2023-07-13T02:23:57;99832.78;;;22.98;89.47
71567;BME280;59403;47.456;19.120;2023-07-13T02:26:34;99828.25;;;23.04;89.67
71567;BME280;59403;47.456;19.120;2023-07-13T02:29:13;99840.87;;;22.98;89.81
71567;BME280;59403;47.456;19.120;2023-07-13T02:31:59;99838.06;;;22.88;90.79
71567;BME280;59403;47.456;19.120;2023-07-13T02:34:48;99823.09;;;22.81;90.80
71567;BME280;59403;47.456;19.120;2023-07-13T02:37:16;99844.25;;;22.89;90.80
71567;BME280;59403;47.456;19.120;2023-07-13T02:40:01;99852.28;;;22.84;91.12
71567;BME280;59403;47.456;19.120;2023-07-13T02:42:58;99847.91;;;22.78;91.82
71567;BME280;59403;47.456;19.120;2023-07-13T02:45:35;99852.66;;;22.71;92.77
71567;BME280;59403;47.456;19.120;2023-07-13T02:48:22;99829.28;;;22.60;93.08
71567;BME280;59403;47.456;19.120;2023-07-13T02:51:04;99837.12;;;22.61;93.15
71567;BME280;59403;47.456;19.120;2023-07-13T02:53:50;99851.44;;;22.62;93.07
71567;BME280;59403;47.456;19.120;2023-07-13T02:56:27;99863.87;;;22.63;93.09
71567;BME280;59403;47.456;19.120;2023-07-13T02:59:02;99866.81;;;22.61;93.52
71567;BME280;59403;47.456;19.120;2023-07-13T03:01:30;99873.56;;;22.59;93.94
71567;BME280;59403;47.456;19.120;2023-07-13T03:04:25;99876.12;;;22.53;94.31
71567;BME280;59403;47.456;19.120;2023-07-13T03:06:54;99873.41;;;22.53;94.61
71567;BME280;59403;47.456;19.120;2023-07-13T03:09:33;99868.19;;;22.47;94.56
71567;BME280;59403;47.456;19.120;2023-07-13T03:12:09;99879.00;;;22.47;94.62
71567;BME280;59403;47.456;19.120;2023-07-13T03:14:48;99895.75;;;22.49;94.55
71567;BME280;59403;47.456;19.120;2023-07-13T03:17:21;99896.34;;;22.51;94.77
71567;BME280;59403;47.456;19.120;2023-07-13T03:19:52;99908.06;;;22.57;94.99
71567;BME280;59403;47.456;19.120;2023-07-13T03:22:26;99900.66;;;22.52;94.98
71567;BME280;59403;47.456;19.120;2023-07-13T03:24:59;99897.53;;;22.55;94.96
71567;BME280;59403;47.456;19.120;2023-07-13T03:27:27;99886.91;;;22.53;95.42
71567;BME280;59403;47.456;19.120;2023-07-13T03:29:54;99881.66;;;22.59;95.71
71567;BME280;59403;47.456;19.120;2023-07-13T03:32:21;99888.50;;;22.66;95.78
71567;BME280;59403;47.456;19.120;2023-07-13T03:34:49;99888.75;;;22.65;96.57
71567;BME280;59403;47.456;19.120;2023-07-13T03:37:18;99857.97;;;22.49;97.00
71567;BME280;59403;47.456;19.120;2023-07-13T03:39:46;99881.22;;;22.67;97.00
71567;BME280;59403;47.456;19.120;2023-07-13T03:42:14;99870.91;;;22.64;97.42
71567;BME280;59403;47.456;19.120;2023-07-13T03:44:43;99865.53;;;22.64;97.84
71567;BME280;59403;47.456;19.120;2023-07-13T03:47:14;99878.25;;;22.68;97.96
71567;BME280;59403;47.456;19.120;2023-07-13T03:49:41;99899.44;;;22.76;98.18
71567;BME280;59403;47.456;19.120;2023-07-13T03:52:08;99904.63;;;22.78;100.00
71567;BME280;59403;47.456;19.120;2023-07-13T03:54:35;99893.31;;;22.81;99.79
71567;BME280;59403;47.456;19.120;2023-07-13T03:57:03;99904.00;;;22.92;99.55
71567;BME280;59403;47.456;19.120;2023-07-13T03:59:31;99868.44;;;22.79;100.00
71567;BME280;59403;47.456;19.120;2023-07-13T04:02:00;99885.41;;;22.96;100.00
71567;BME280;59403;47.456;19.120;2023-07-13T04:04:32;99900.88;;;23.00;100.00
71567;BME280;59403;47.456;19.120;2023-07-13T04:06:59;99898.50;;;23.04;100.00
71567;BME280;59403;47.456;19.120;2023-07-13T04:09:27;99908.47;;;23.03;100.00
71567;BME280;59403;47.456;19.120;2023-07-13T04:11:56;99919.34;;;23.08;100.00
71567;BME280;59403;47.456;19.120;2023-07-13T04:14:26;99933.44;;;23.10;100.00
71567;BME280;59403;47.456;19.120;2023-07-13T04:16:53;99959.12;;;23.13;100.00
71567;BME280;59403;47.456;19.120;2023-07-13T04:19:24;99963.16;;;23.10;100.00
71567;BME280;59403;47.456;19.120;2023-07-13T04:21:51;99985.03;;;23.09;100.00
71567;BME280;59403;47.456;19.120;2023-07-13T04:24:18;99989.84;;;23.07;100.00
71567;BME280;59403;47.456;19.120;2023-07-13T04:26:45;99963.34;;;23.04;100.00
71567;BME280;59403;47.456;19.120;2023-07-13T04:29:12;99965.03;;;23.10;100.00
71567;BME280;59403;47.456;19.120;2023-07-13T04:31:39;99977.31;;;23.01;100.00
71567;BME280;59403;47.456;19.120;2023-07-13T04:34:11;99974.22;;;22.92;100.00
71567;BME280;59403;47.456;19.120;2023-07-13T04:36:40;99987.88;;;23.02;100.00
71567;BME280;59403;47.456;19.120;2023-07-13T04:39:10;99993.53;;;23.01;100.00
71567;BME280;59403;47.456;19.120;2023-07-13T04:41:37;100006.69;;;22.97;100.00
71567;BME280;59403;47.456;19.120;2023-07-13T04:44:05;100004.75;;;22.93;100.00
71567;BME280;59403;47.456;19.120;2023-07-13T04:46:32;100020.72;;;22.94;100.00
71567;BME280;59403;47.456;19.120;2023-07-13T04:48:59;100023.16;;;22.96;100.00
71567;BME280;59403;47.456;19.120;2023-07-13T04:51:41;100025.88;;;22.96;100.00
71567;BME280;59403;47.456;19.120;2023-07-13T04:54:08;100025.53;;;22.92;100.00
71567;BME280;59403;47.456;19.120;2023-07-13T04:56:35;100032.25;;;22.90;100.00
71567;BME280;59403;47.456;19.120;2023-07-13T04:59:01;100035.75;;;22.90;100.00
71567;BME280;59403;47.456;19.120;2023-07-13T05:01:28;100048.38;;;22.85;100.00
71567;BME280;59403;47.456;19.120;2023-07-13T05:03:56;100054.59;;;22.85;100.00
71567;BME280;59403;47.456;19.120;2023-07-13T05:06:24;100060.47;;;22.82;100.00
71567;BME280;59403;47.456;19.120;2023-07-13T05:08:52;100079.31;;;22.77;100.00
71567;BME280;59403;47.456;19.120;2023-07-13T05:11:19;100098.37;;;22.71;100.00
71567;BME280;59403;47.456;19.120;2023-07-13T05:13:46;100124.44;;;22.65;100.00
71567;BME280;59403;47.456;19.120;2023-07-13T05:16:13;100145.50;;;22.51;100.00
71567;BME280;59403;47.456;19.120;2023-07-13T05:18:40;100168.81;;;22.18;100.00
71567;BME280;59403;47.456;19.120;2023-07-13T05:21:08;100150.44;;;21.92;100.00
71567;BME280;59403;47.456;19.120;2023-07-13T05:30:46;100183.19;;;21.19;100.00
71567;BME280;59403;47.456;19.120;2023-07-13T05:33:15;100171.06;;;20.99;100.00
71567;BME280;59403;47.456;19.120;2023-07-13T05:35:45;100171.94;;;20.93;100.00
71567;BME280;59403;47.456;19.120;2023-07-13T05:38:12;100176.37;;;20.87;100.00
71567;BME280;59403;47.456;19.120;2023-07-13T05:40:39;100171.69;;;20.83;100.00
71567;BME280;59403;47.456;19.120;2023-07-13T05:43:08;100180.19;;;20.80;100.00
71567;BME280;59403;47.456;19.120;2023-07-13T05:45:35;100205.84;;;20.82;100.00
71567;BME280;59403;47.456;19.120;2023-07-13T05:48:03;100222.31;;;20.74;100.00
71567;BME280;59403;47.456;19.120;2023-07-13T05:50:31;100205.81;;;20.71;100.00
71567;BME280;59403;47.456;19.120;2023-07-13T05:52:58;100211.31;;;20.76;100.00
71567;BME280;59403;47.456;19.120;2023-07-13T05:55:25;100195.84;;;20.71;100.00
71567;BME280;59403;47.456;19.120;2023-07-13T05:57:52;100184.34;;;20.64;100.00
71567;BME280;59403;47.456;19.120;2023-07-13T06:00:21;100179.50;;;20.73;100.00
71567;BME280;59403;47.456;19.120;2023-07-13T06:02:51;100162.66;;;20.59;100.00
71567;BME280;59403;47.456;19.120;2023-07-13T06:05:19;100156.34;;;20.54;100.00
71567;BME280;59403;47.456;19.120;2023-07-13T06:07:46;100137.34;;;20.49;100.00
71567;BME280;59403;47.456;19.120;2023-07-13T06:10:13;100105.28;;;20.47;100.00
71567;BME280;59403;47.456;19.120;2023-07-13T06:12:44;100089.81;;;20.31;100.00
71567;BME280;59403;47.456;19.120;2023-07-13T06:15:12;100057.37;;;20.08;100.00
71567;BME280;59403;47.456;19.120;2023-07-13T06:17:38;99962.28;;;19.91;100.00
71567;BME280;59403;47.456;19.120;2023-07-13T06:20:12;99867.44;;;19.72;100.00
71567;BME280;59403;47.456;19.120;2023-07-13T06:22:43;99836.00;;;19.73;100.00
71567;BME280;59403;47.456;19.120;2023-07-13T06:25:10;99803.78;;;19.73;100.00
71567;BME280;59403;47.456;19.120;2023-07-13T06:27:37;99835.47;;;19.82;100.00
71567;BME280;59403;47.456;19.120;2023-07-13T06:30:06;99870.78;;;19.86;100.00
71567;BME280;59403;47.456;19.120;2023-07-13T06:32:36;99865.69;;;19.78;100.00
71567;BME280;59403;47.456;19.120;2023-07-13T06:35:03;99820.13;;;19.71;100.00
71567;BME280;59403;47.456;19.120;2023-07-13T06:37:30;99827.53;;;19.87;100.00
71567;BME280;59403;47.456;19.120;2023-07-13T06:40:00;99826.94;;;19.97;100.00
71567;BME280;59403;47.456;19.120;2023-07-13T06:42:27;99824.50;;;19.95;100.00
71567;BME280;59403;47.456;19.120;2023-07-13T06:44:56;99820.31;;;20.11;100.00
71567;BME280;59403;47.456;19.120;2023-07-13T06:47:23;99838.19;;;20.05;100.00
71567;BME280;59403;47.456;19.120;2023-07-13T06:49:50;99829.81;;;20.25;100.00
71567;BME280;59403;47.456;19.120;2023-07-13T06:52:17;99823.28;;;20.44;100.00
71567;BME280;59403;47.456;19.120;2023-07-13T06:54:44;99820.59;;;20.33;100.00
71567;BME280;59403;47.456;19.120;2023-07-13T06:57:16;99822.69;;;20.42;100.00
71567;BME280;59403;47.456;19.120;2023-07-13T06:59:53;99812.28;;;20.46;100.00
71567;BME280;59403;47.456;19.120;2023-07-13T07:02:20;99788.28;;;20.56;100.00
71567;BME280;59403;47.456;19.120;2023-07-13T07:04:48;99810.16;;;20.71;100.00
71567;BME280;59403;47.456;19.120;2023-07-13T07:07:19;99804.38;;;20.90;100.00
71567;BME280;59403;47.456;19.120;2023-07-13T07:09:46;99819.66;;;21.24;100.00
71567;BME280;59403;47.456;19.120;2023-07-13T07:12:13;99822.00;;;21.49;100.00
71567;BME280;59403;47.456;19.120;2023-07-13T07:14:41;99826.41;;;21.83;100.00
71567;BME280;59403;47.456;19.120;2023-07-13T07:17:08;99817.37;;;22.06;100.00
71567;BME280;59403;47.456;19.120;2023-07-13T07:19:35;99846.53;;;22.42;100.00
71567;BME280;59403;47.456;19.120;2023-07-13T07:22:04;99868.78;;;22.49;100.00
71567;BME280;59403;47.456;19.120;2023-07-13T07:24:31;99986.44;;;22.62;100.00
71567;BME280;59403;47.456;19.120;2023-07-13T07:26:58;100023.87;;;22.30;100.00
71567;BME280;59403;47.456;19.120;2023-07-13T07:29:27;100026.72;;;22.51;100.00
71567;BME280;59403;47.456;19.120;2023-07-13T07:31:58;100036.75;;;22.39;100.00
71567;BME280;59403;47.456;19.120;2023-07-13T07:34:25;100023.91;;;22.75;100.00
71567;BME280;59403;47.456;19.120;2023-07-13T07:36:54;100016.34;;;23.10;100.00
71567;BME280;59403;47.456;19.120;2023-07-13T07:39:21;100033.31;;;23.38;100.00
71567;BME280;59403;47.456;19.120;2023-07-13T07:41:49;100054.84;;;23.00;100.00
71567;BME280;59403;47.456;19.120;2023-07-13T07:44:19;100026.25;;;23.04;100.00
71567;BME280;59403;47.456;19.120;2023-07-13T07:46:49;100055.97;;;23.37;100.00
71567;BME280;59403;47.456;19.120;2023-07-13T07:49:20;100054.31;;;23.53;100.00
71567;BME280;59403;47.456;19.120;2023-07-13T07:51:47;100057.75;;;23.87;100.00
71567;BME280;59403;47.456;19.120;2023-07-13T07:54:17;100053.97;;;23.88;98.69
71567;BME280;59403;47.456;19.120;2023-07-13T07:56:43;100051.97;;;24.00;99.51
71567;BME280;59403;47.456;19.120;2023-07-13T07:59:10;100067.81;;;23.70;97.85
71567;BME280;59403;47.456;19.120;2023-07-13T08:01:37;100052.84;;;23.84;98.65
71567;BME280;59403;47.456;19.120;2023-07-13T08:04:04;100061.34;;;24.14;93.88
71567;BME280;59403;47.456;19.120;2023-07-13T08:06:33;100067.97;;;24.23;93.18
71567;BME280;59403;47.456;19.120;2023-07-13T08:08:59;100077.72;;;24.02;88.29
71567;BME280;59403;47.456;19.120;2023-07-13T08:11:27;100078.88;;;24.33;90.95
71567;BME280;59403;47.456;19.120;2023-07-13T08:13:53;100057.78;;;24.56;89.40
71567;BME280;59403;47.456;19.120;2023-07-13T08:16:21;100054.66;;;24.69;90.53
71567;BME280;59403;47.456;19.120;2023-07-13T08:18:48;100057.37;;;25.01;86.35
71567;BME280;59403;47.456;19.120;2023-07-13T08:21:15;100054.06;;;24.94;87.76
71567;BME280;59403;47.456;19.120;2023-07-13T08:23:46;100050.34;;;25.00;86.40
71567;BME280;59403;47.456;19.120;2023-07-13T08:26:13;100058.84;;;25.14;84.20
71567;BME280;59403;47.456;19.120;2023-07-13T08:28:41;100058.06;;;25.23;83.97
71567;BME280;59403;47.456;19.120;2023-07-13T08:31:08;100057.19;;;25.13;83.99
71567;BME280;59403;47.456;19.120;2023-07-13T08:33:36;100049.84;;;25.45;82.87
71567;BME280;59403;47.456;19.120;2023-07-13T08:36:04;100047.22;;;25.60;81.53
71567;BME280;59403;47.456;19.120;2023-07-13T08:38:31;100040.81;;;25.76;80.12
71567;BME280;59403;47.456;19.120;2023-07-13T08:41:09;100046.25;;;25.86;82.04
71567;BME280;59403;47.456;19.120;2023-07-13T08:43:37;100044.91;;;25.84;81.47
71567;BME280;59403;47.456;19.120;2023-07-13T08:46:09;100047.66;;;25.89;79.88
71567;BME280;59403;47.456;19.120;2023-07-13T08:48:42;100047.66;;;25.94;77.98
71567;BME280;59403;47.456;19.120;2023-07-13T08:51:22;100051.28;;;26.09;78.90
71567;BME280;59403;47.456;19.120;2023-07-13T08:53:55;100049.16;;;26.21;79.26
71567;BME280;59403;47.456;19.120;2023-07-13T08:56:27;100061.91;;;26.26;78.06
71567;BME280;59403;47.456;19.120;2023-07-13T08:58:56;100064.44;;;26.62;76.73
71567;BME280;59403;47.456;19.120;2023-07-13T09:01:29;100047.88;;;26.64;77.18
71567;BME280;59403;47.456;19.120;2023-07-13T09:04:04;100063.38;;;26.63;75.97
71567;BME280;59403;47.456;19.120;2023-07-13T09:06:39;100061.25;;;26.70;73.90
71567;BME280;59403;47.456;19.120;2023-07-13T09:09:20;100057.16;;;26.78;75.14
71567;BME280;59403;47.456;19.120;2023-07-13T09:11:56;100053.91;;;26.86;73.16
71567;BME280;59403;47.456;19.120;2023-07-13T09:14:35;100056.63;;;26.96;75.40
71567;BME280;59403;47.456;19.120;2023-07-13T09:17:04;100064.50;;;27.08;71.57
71567;BME280;59403;47.456;19.120;2023-07-13T09:19:34;100067.75;;;27.25;73.76
71567;BME280;59403;47.456;19.120;2023-07-13T09:22:04;100063.63;;;27.62;73.58
71567;BME280;59403;47.456;19.120;2023-07-13T09:24:37;100065.84;;;27.55;72.97
71567;BME280;59403;47.456;19.120;2023-07-13T09:27:14;100047.06;;;27.54;70.66
71567;BME280;59403;47.456;19.120;2023-07-13T09:29:47;100067.63;;;28.00;69.80
71567;BME280;59403;47.456;19.120;2023-07-13T09:32:18;100065.44;;;28.02;70.62
71567;BME280;59403;47.456;19.120;2023-07-13T09:34:52;100061.13;;;27.76;69.81
71567;BME280;59403;47.456;19.120;2023-07-13T09:37:21;100080.25;;;27.46;71.42
71567;BME280;59403;47.456;19.120;2023-07-13T09:39:51;100082.44;;;27.39;70.65
71567;BME280;59403;47.456;19.120;2023-07-13T09:42:22;100081.88;;;27.27;72.22
71567;BME280;59403;47.456;19.120;2023-07-13T09:44:54;100081.06;;;26.71;73.94
71567;BME280;59403;47.456;19.120;2023-07-13T09:47:22;100093.06;;;27.00;73.57
71567;BME280;59403;47.456;19.120;2023-07-13T09:49:56;100082.44;;;27.14;71.02
71567;BME280;59403;47.456;19.120;2023-07-13T09:52:24;100080.81;;;26.82;73.13
71567;BME280;59403;47.456;19.120;2023-07-13T09:54:52;100080.00;;;26.87;73.46
71567;BME280;59403;47.456;19.120;2023-07-13T09:57:29;100088.59;;;26.44;74.92
71567;BME280;59403;47.456;19.120;2023-07-13T09:59:56;100089.41;;;26.49;73.96
71567;BME280;59403;47.456;19.120;2023-07-13T10:02:27;100092.13;;;26.49;73.50
71567;BME280;59403;47.456;19.120;2023-07-13T10:04:59;100080.34;;;26.19;74.71
71567;BME280;59403;47.456;19.120;2023-07-13T10:07:30;100074.00;;;26.70;72.77
71567;BME280;59403;47.456;19.120;2023-07-13T10:09:59;100088.44;;;27.21;70.04
71567;BME280;59403;47.456;19.120;2023-07-13T10:12:35;100068.59;;;27.30;68.78
71567;BME280;59403;47.456;19.120;2023-07-13T10:15:09;100080.25;;;27.26;70.54
71567;BME280;59403;47.456;19.120;2023-07-13T10:17:41;100086.50;;;27.26;70.46
71567;BME280;59403;47.456;19.120;2023-07-13T10:20:09;100077.41;;;27.96;69.03
71567;BME280;59403;47.456;19.120;2023-07-13T10:22:42;100076.78;;;28.19;67.74
71567;BME280;59403;47.456;19.120;2023-07-13T10:25:15;100074.91;;;28.15;66.94
71567;BME280;59403;47.456;19.120;2023-07-13T10:27:45;100077.81;;;28.33;66.55
71567;BME280;59403;47.456;19.120;2023-07-13T10:30:15;100083.25;;;28.33;64.75
71567;BME280;59403;47.456;19.120;2023-07-13T10:32:44;100078.34;;;28.35;64.13
71567;BME280;59403;47.456;19.120;2023-07-13T10:35:13;100089.22;;;28.40;64.29
71567;BME280;59403;47.456;19.120;2023-07-13T10:37:45;100090.97;;;28.70;65.07
71567;BME280;59403;47.456;19.120;2023-07-13T10:40:19;100086.12;;;28.95;64.23
71567;BME280;59403;47.456;19.120;2023-07-13T10:42:53;100090.19;;;29.03;64.95
71567;BME280;59403;47.456;19.120;2023-07-13T10:45:23;100079.56;;;29.01;61.44
71567;BME280;59403;47.456;19.120;2023-07-13T10:47:52;100085.97;;;28.82;61.42
71567;BME280;59403;47.456;19.120;2023-07-13T10:50:23;100088.75;;;28.77;61.32
71567;BME280;59403;47.456;19.120;2023-07-13T10:52:52;100078.81;;;28.47;60.02
71567;BME280;59403;47.456;19.120;2023-07-13T10:55:35;100075.25;;;28.47;60.44
71567;BME280;59403;47.456;19.120;2023-07-13T10:58:12;100077.53;;;28.78;59.59
71567;BME280;59403;47.456;19.120;2023-07-13T11:00:51;100088.75;;;29.11;60.35
71567;BME280;59403;47.456;19.120;2023-07-13T11:03:21;100089.00;;;29.14;58.76
71567;BME280;59403;47.456;19.120;2023-07-13T11:05:51;100079.50;;;29.12;58.71
71567;BME280;59403;47.456;19.120;2023-07-13T11:08:32;100078.81;;;28.91;57.70
71567;BME280;59403;47.456;19.120;2023-07-13T11:14:03;100071.44;;;28.91;56.44
71567;BME280;59403;47.456;19.120;2023-07-13T11:16:36;100089.00;;;29.14;57.57
71567;BME280;59403;47.456;19.120;2023-07-13T11:19:36;100086.47;;;29.51;56.64
71567;BME280;59403;47.456;19.120;2023-07-13T11:22:40;100077.19;;;29.52;54.88
71567;BME280;59403;47.456;19.120;2023-07-13T11:25:31;100093.09;;;29.74;57.54
71567;BME280;59403;47.456;19.120;2023-07-13T11:28:14;100084.94;;;29.40;56.15
71567;BME280;59403;47.456;19.120;2023-07-13T11:30:46;100079.78;;;29.10;56.47
71567;BME280;59403;47.456;19.120;2023-07-13T11:33:17;100065.91;;;29.35;56.46
71567;BME280;59403;47.456;19.120;2023-07-13T11:35:59;100066.81;;;28.92;58.64
71567;BME280;59403;47.456;19.120;2023-07-13T11:38:32;100062.25;;;29.16;56.49
71567;BME280;59403;47.456;19.120;2023-07-13T11:41:02;100065.78;;;29.45;55.42
71567;BME280;59403;47.456;19.120;2023-07-13T11:43:30;100058.47;;;29.93;55.47
71567;BME280;59403;47.456;19.120;2023-07-13T11:46:12;100073.25;;;29.92;53.97
71567;BME280;59403;47.456;19.120;2023-07-13T11:48:39;100064.97;;;30.39;54.65
71567;BME280;59403;47.456;19.120;2023-07-13T11:51:18;100068.25;;;30.60;54.41
71567;BME280;59403;47.456;19.120;2023-07-13T11:53:49;100075.47;;;30.51;53.14
71567;BME280;59403;47.456;19.120;2023-07-13T11:56:17;100080.28;;;30.17;51.79
71567;BME280;59403;47.456;19.120;2023-07-13T11:58:44;100062.84;;;29.65;50.40
71567;BME280;59403;47.456;19.120;2023-07-13T12:01:20;100059.97;;;29.80;51.03
71567;BME280;59403;47.456;19.120;2023-07-13T12:03:49;100055.00;;;30.06;51.01
71567;BME280;59403;47.456;19.120;2023-07-13T12:06:28;100070.00;;;30.08;51.41
71567;BME280;59403;47.456;19.120;2023-07-13T12:08:59;100068.75;;;30.25;52.41
71567;BME280;59403;47.456;19.120;2023-07-13T12:11:27;100062.91;;;30.50;51.56
71567;BME280;59403;47.456;19.120;2023-07-13T12:13:54;100055.00;;;30.06;50.26
71567;BME280;59403;47.456;19.120;2023-07-13T12:16:26;100049.81;;;29.86;52.34
71567;BME280;59403;47.456;19.120;2023-07-13T12:18:55;100058.84;;;29.58;54.00
71567;BME280;59403;47.456;19.120;2023-07-13T12:21:31;100048.94;;;29.38;52.90
71567;BME280;59403;47.456;19.120;2023-07-13T12:23:59;100053.44;;;29.81;52.63
71567;BME280;59403;47.456;19.120;2023-07-13T12:26:28;100059.34;;;29.36;54.20
71567;BME280;59403;47.456;19.120;2023-07-13T12:28:59;100050.78;;;29.71;52.52
71567;BME280;59403;47.456;19.120;2023-07-13T12:31:34;100054.53;;;30.23;53.32
71567;BME280;59403;47.456;19.120;2023-07-13T12:34:06;100039.81;;;30.00;51.18
71567;BME280;59403;47.456;19.120;2023-07-13T12:36:35;100041.19;;;30.40;50.75
71567;BME280;59403;47.456;19.120;2023-07-13T12:39:12;100048.66;;;30.34;50.74
71567;BME280;59403;47.456;19.120;2023-07-13T12:41:43;100040.56;;;30.05;50.31
71567;BME280;59403;47.456;19.120;2023-07-13T12:44:12;100052.44;;;29.72;51.11
71567;BME280;59403;47.456;19.120;2023-07-13T12:46:57;100038.28;;;29.65;52.31
71567;BME280;59403;47.456;19.120;2023-07-13T12:49:28;100044.28;;;29.91;53.05
71567;BME280;59403;47.456;19.120;2023-07-13T12:52:15;100052.03;;;30.02;52.42
71567;BME280;59403;47.456;19.120;2023-07-13T12:54:51;100051.56;;;29.77;52.03
71567;BME280;59403;47.456;19.120;2023-07-13T12:57:18;100054.09;;;29.68;52.57
71567;BME280;59403;47.456;19.120;2023-07-13T12:59:45;100048.13;;;29.90;53.23
71567;BME280;59403;47.456;19.120;2023-07-13T13:02:28;100042.84;;;29.98;53.83
71567;BME280;59403;47.456;19.120;2023-07-13T13:04:56;100043.59;;;29.80;55.23
71567;BME280;59403;47.456;19.120;2023-07-13T13:07:24;100035.84;;;29.87;52.39
71567;BME280;59403;47.456;19.120;2023-07-13T13:09:51;100035.25;;;29.90;54.23
71567;BME280;59403;47.456;19.120;2023-07-13T13:12:19;100045.75;;;30.26;53.28
71567;BME280;59403;47.456;19.120;2023-07-13T13:14:46;100027.19;;;30.23;51.99
71567;BME280;59403;47.456;19.120;2023-07-13T13:17:19;100030.16;;;30.07;52.16